Time;durP1;ratioP1;P1;durP2;ratioP2;P2;SDS_P1;SDS_P2;PMS_P1;PMS_P2;Temp;Humidity;BMP_temperature;BMP_pressure;BME280_temperature;BME280_humidity;BME280_pressure;Samples;Min_cycle;Max_cycle;Signal;HPM_P1;HPM_P2
2023/04/26 00:01:52;;;;;;;29.17;6.28;;;20.30;73.80;;;;;;5018292;28;20025;-79
2023/04/26 00:04:18;;;;;;;33.05;7.07;;;20.30;73.80;;;;;;5017763;28;20021;-80
2023/04/26 00:06:44;;;;;;;28.65;6.45;;;20.30;73.80;;;;;;5017207;28;20025;-80
2023/04/26 00:09:10;;;;;;;27.08;6.47;;;20.30;73.80;;;;;;5020606;28;20022;-79
2023/04/26 00:11:35;;;;;;;23.65;7.05;;;20.30;73.90;;;;;;5016903;28;20106;-78
2023/04/26 00:14:01;;;;;;;27.17;7.40;;;20.30;73.80;;;;;;5008733;28;20077;-80
2023/04/26 00:16:26;;;;;;;33.08;6.80;;;20.30;73.80;;;;;;5013884;28;20087;-78
2023/04/26 00:18:53;;;;;;;34.47;7.15;;;20.30;73.80;;;;;;5013320;28;20026;-80
2023/04/26 00:21:18;;;;;;;29.50;6.25;;;20.30;73.90;;;;;;5018222;28;20038;-79
2023/04/26 00:23:44;;;;;;;26.50;6.65;;;20.20;73.80;;;;;;5017146;28;20575;-81
2023/04/26 00:26:09;;;;;;;31.73;6.85;;;20.20;73.80;;;;;;5015031;28;20550;-79
2023/04/26 00:28:35;;;;;;;27.98;6.68;;;20.20;73.80;;;;;;5020358;28;20022;-80
2023/04/26 00:31:01;;;;;;;31.27;7.40;;;20.20;73.80;;;;;;5012881;28;20530;-80
2023/04/26 00:33:27;;;;;;;24.88;6.15;;;20.20;73.80;;;;;;5016772;28;20384;-80
2023/04/26 00:35:52;;;;;;;24.98;5.97;;;20.20;73.80;;;;;;5021703;28;20026;-79
2023/04/26 00:38:18;;;;;;;22.95;6.63;;;20.20;73.80;;;;;;5023316;28;20026;-79
2023/04/26 00:40:43;;;;;;;24.35;6.15;;;20.20;73.80;;;;;;5019591;28;20022;-79
2023/04/26 00:43:09;;;;;;;25.98;6.40;;;20.20;73.90;;;;;;5022305;28;20040;-79
2023/04/26 00:45:35;;;;;;;21.48;5.57;;;20.20;73.90;;;;;;5023944;28;20116;-80
2023/04/26 00:48:02;;;;;;;21.02;5.15;;;20.20;73.80;;;;;;5021555;28;20113;-78
2023/04/26 00:50:30;;;;;;;25.83;5.80;;;20.20;73.90;;;;;;5010234;28;20026;-79
2023/04/26 00:52:57;;;;;;;23.83;6.43;;;20.20;73.90;;;;;;5019074;28;20057;-80
2023/04/26 00:55:23;;;;;;;24.80;6.07;;;20.20;73.90;;;;;;5018483;28;20018;-79
2023/04/26 00:57:48;;;;;;;23.50;6.10;;;20.20;73.90;;;;;;5016866;28;20106;-78
2023/04/26 01:00:15;;;;;;;19.40;6.03;;;20.20;74.00;;;;;;5012832;28;20029;-79
2023/04/26 01:02:41;;;;;;;17.52;5.50;;;20.20;74.00;;;;;;5014031;28;20029;-79
2023/04/26 01:05:08;;;;;;;24.27;6.60;;;20.20;74.00;;;;;;5014093;28;20076;-80
2023/04/26 01:07:35;;;;;;;27.73;6.30;;;20.20;73.90;;;;;;5012342;28;20088;-79
2023/04/26 01:10:04;;;;;;;19.20;6.10;;;20.10;73.90;;;;;;5006455;28;20036;-79
2023/04/26 01:12:30;;;;;;;24.27;5.63;;;20.10;73.80;;;;;;5011832;28;20037;-80
2023/04/26 01:14:56;;;;;;;20.10;5.80;;;20.10;73.90;;;;;;5014587;28;20045;-78
2023/04/26 01:17:22;;;;;;;24.30;6.60;;;20.10;73.80;;;;;;5019903;28;20037;-79
2023/04/26 01:19:51;;;;;;;21.98;6.82;;;20.20;74.00;;;;;;5020703;28;20018;-79
2023/04/26 01:22:16;;;;;;;21.33;6.30;;;20.10;73.90;;;;;;5018992;28;20030;-80
2023/04/26 01:24:45;;;;;;;20.70;5.35;;;20.10;73.90;;;;;;5020846;28;20033;-80
2023/04/26 01:27:10;;;;;;;23.10;5.60;;;20.10;73.90;;;;;;5018331;28;20105;-78
2023/04/26 01:29:36;;;;;;;18.23;6.07;;;20.10;73.90;;;;;;5022909;28;20465;-78
2023/04/26 01:32:01;;;;;;;20.27;5.95;;;20.10;73.90;;;;;;5021280;28;20046;-79
2023/04/26 01:34:27;;;;;;;20.70;5.63;;;20.10;73.90;;;;;;5024973;28;21149;-79
2023/04/26 01:36:53;;;;;;;20.95;5.72;;;20.10;74.00;;;;;;5018556;28;20014;-79
2023/04/26 01:39:18;;;;;;;28.25;5.43;;;20.10;73.90;;;;;;5020822;28;20021;-77
2023/04/26 01:41:44;;;;;;;21.30;5.25;;;20.10;74.00;;;;;;5019973;28;20026;-79
2023/04/26 01:44:09;;;;;;;17.55;5.10;;;20.10;74.00;;;;;;5041266;28;20018;-78
2023/04/26 01:46:35;;;;;;;28.88;6.30;;;20.10;74.70;;;;;;5017664;28;20037;-79
2023/04/26 01:49:01;;;;;;;17.40;5.65;;;20.10;74.00;;;;;;5018650;28;20090;-78
2023/04/26 01:51:26;;;;;;;20.20;5.15;;;20.10;74.00;;;;;;5014808;28;20026;-80
2023/04/26 01:53:52;;;;;;;19.58;5.70;;;20.10;74.00;;;;;;5019037;28;20025;-80
2023/04/26 01:56:18;;;;;;;24.83;5.57;;;20.10;74.00;;;;;;5017229;28;20502;-78
2023/04/26 01:58:44;;;;;;;19.48;5.28;;;20.10;74.00;;;;;;5013612;28;20049;-77
2023/04/26 02:01:10;;;;;;;18.67;5.05;;;20.10;74.00;;;;;;5011171;28;20022;-79
2023/04/26 02:03:36;;;;;;;16.98;4.95;;;20.00;74.00;;;;;;5008509;28;20029;-80
2023/04/26 02:06:02;;;;;;;20.55;5.20;;;20.00;73.90;;;;;;5016932;28;20029;-80
2023/04/26 02:08:27;;;;;;;15.38;4.80;;;20.10;74.00;;;;;;5015860;28;20442;-79
2023/04/26 02:10:53;;;;;;;14.77;5.40;;;20.00;74.00;;;;;;5012611;28;20156;-79
2023/04/26 02:13:19;;;;;;;19.60;5.10;;;20.00;74.00;;;;;;5014867;28;20677;-79
2023/04/26 02:15:48;;;;;;;22.23;5.07;;;20.00;74.80;;;;;;5018357;28;20028;-78
2023/04/26 02:18:15;;;;;;;19.48;5.07;;;20.00;73.90;;;;;;5014319;28;20026;-79
2023/04/26 02:20:44;;;;;;;17.60;5.93;;;20.00;74.00;;;;;;5019918;28;20390;-80
2023/04/26 02:23:11;;;;;;;17.13;5.50;;;20.00;74.00;;;;;;5016587;28;20514;-79
2023/04/26 02:25:37;;;;;;;21.85;5.10;;;20.00;74.00;;;;;;5021140;28;20033;-80
2023/04/26 02:28:04;;;;;;;20.98;4.68;;;20.00;74.00;;;;;;5017150;28;20693;-78
2023/04/26 02:30:30;;;;;;;14.43;4.18;;;20.00;74.00;;;;;;5019484;28;20522;-79
2023/04/26 02:32:56;;;;;;;15.27;4.45;;;20.00;74.10;;;;;;5015805;28;20528;-80
2023/04/26 02:35:22;;;;;;;17.33;4.80;;;19.90;74.00;;;;;;5019830;28;20079;-80
2023/04/26 02:37:48;;;;;;;16.58;5.00;;;20.00;74.00;;;;;;5021112;28;20112;-78
2023/04/26 02:40:15;;;;;;;18.77;4.97;;;20.00;74.00;;;;;;5018875;28;20160;-79
2023/04/26 02:42:40;;;;;;;16.52;4.63;;;20.00;74.00;;;;;;5010255;28;20029;-80
2023/04/26 02:45:06;;;;;;;16.08;4.85;;;20.00;74.10;;;;;;5014061;28;20029;-80
2023/04/26 02:47:32;;;;;;;21.67;5.25;;;20.00;74.00;;;;;;5019709;28;20037;-79
2023/04/26 02:49:58;;;;;;;21.30;5.40;;;20.00;74.00;;;;;;5014718;28;20494;-80
2023/04/26 02:52:23;;;;;;;16.00;4.82;;;19.90;74.00;;;;;;5008624;28;20030;-78
2023/04/26 02:54:49;;;;;;;18.30;5.20;;;19.90;74.00;;;;;;5006631;28;20018;-79
2023/04/26 02:57:15;;;;;;;18.17;5.35;;;19.90;74.00;;;;;;5008659;28;20018;-79
2023/04/26 02:59:40;;;;;;;16.67;4.88;;;19.90;74.00;;;;;;5012338;28;20052;-78
2023/04/26 03:02:06;;;;;;;18.65;4.57;;;20.00;74.10;;;;;;5009220;28;20029;-77
2023/04/26 03:04:35;;;;;;;16.92;5.00;;;19.90;74.00;;;;;;5013836;28;20022;-80
2023/04/26 03:07:02;;;;;;;13.45;4.25;;;19.90;74.00;;;;;;5017229;28;20549;-78
2023/04/26 03:09:28;;;;;;;17.48;4.90;;;19.90;74.00;;;;;;5014552;28;20080;-80
2023/04/26 03:11:53;;;;;;;13.05;4.65;;;19.90;74.00;;;;;;5016496;28;20054;-79
2023/04/26 03:14:19;;;;;;;17.48;4.78;;;19.90;74.00;;;;;;5018226;28;20062;-79
2023/04/26 03:16:45;;;;;;;14.65;4.68;;;19.90;74.00;;;;;;5019938;28;20068;-79
2023/04/26 03:19:10;;;;;;;16.63;5.38;;;19.90;74.50;;;;;;5018452;28;20040;-79
2023/04/26 03:21:36;;;;;;;16.83;4.88;;;19.90;74.00;;;;;;5020831;28;20419;-77
2023/04/26 03:24:02;;;;;;;18.67;5.05;;;19.90;74.00;;;;;;5019641;28;20418;-79
2023/04/26 03:26:27;;;;;;;12.77;4.25;;;19.90;74.00;;;;;;5020420;28;20029;-79
2023/04/26 03:28:53;;;;;;;12.85;4.55;;;19.90;74.00;;;;;;5018630;28;20036;-80
2023/04/26 03:31:20;;;;;;;16.00;5.00;;;19.90;74.00;;;;;;5018664;28;20092;-79
2023/04/26 03:33:46;;;;;;;12.40;4.35;;;19.90;74.00;;;;;;5001472;28;20034;-80
2023/04/26 03:36:11;;;;;;;14.85;5.28;;;19.90;74.10;;;;;;5020317;28;20471;-78
2023/04/26 03:38:37;;;;;;;13.45;4.05;;;19.90;74.10;;;;;;5013809;28;20021;-80
2023/04/26 03:41:02;;;;;;;15.70;4.63;;;19.90;74.10;;;;;;5016047;28;20032;-75
2023/04/26 03:43:28;;;;;;;17.13;4.40;;;19.90;74.10;;;;;;5013289;28;20050;-79
2023/04/26 03:45:54;;;;;;;14.80;4.18;;;19.90;74.10;;;;;;5014634;28;20410;-78
2023/04/26 03:48:19;;;;;;;11.43;3.90;;;19.90;74.10;;;;;;5018584;28;20109;-79
2023/04/26 03:50:45;;;;;;;16.70;4.85;;;19.90;74.10;;;;;;5009246;28;20028;-81
2023/04/26 03:53:11;;;;;;;13.27;4.72;;;20.00;74.10;;;;;;5012753;28;20018;-77
2023/04/26 03:55:37;;;;;;;12.30;4.28;;;20.00;74.20;;;;;;5013566;28;20026;-80
2023/04/26 03:58:06;;;;;;;11.15;4.07;;;20.10;75.00;;;;;;5015234;28;20101;-80
2023/04/26 04:00:38;;;;;;;15.52;4.70;;;20.10;74.20;;;;;;5022127;28;20024;-79
2023/04/26 04:03:04;;;;;;;14.32;4.15;;;20.10;74.90;;;;;;5015401;28;20551;-81
2023/04/26 04:05:30;;;;;;;11.90;3.78;;;20.10;74.10;;;;;;5014165;28;20112;-80
2023/04/26 04:07:55;;;;;;;10.77;3.88;;;20.10;74.10;;;;;;5014972;28;20160;-80
2023/04/26 04:10:22;;;;;;;13.00;4.28;;;20.10;74.10;;;;;;5018181;28;20069;-81
2023/04/26 04:12:48;;;;;;;13.10;3.67;;;20.20;74.20;;;;;;5017552;28;20466;-83
2023/04/26 04:15:15;;;;;;;70.30;6.60;;;20.20;74.60;;;;;;5019978;28;20038;-83
2023/04/26 04:17:41;;;;;;;21.55;5.07;;;20.20;74.90;;;;;;5017183;28;20014;-79
2023/04/26 04:20:07;;;;;;;36.30;4.65;;;20.30;75.40;;;;;;5017612;28;20036;-80
2023/04/26 04:22:33;;;;;;;23.33;4.18;;;20.30;75.20;;;;;;5017490;28;20053;-79
2023/04/26 04:24:59;;;;;;;26.67;4.82;;;20.30;75.10;;;;;;5016533;28;20073;-80
2023/04/26 04:27:25;;;;;;;16.77;3.85;;;20.30;75.10;;;;;;5015340;28;20026;-80
2023/04/26 04:29:52;;;;;;;21.10;3.83;;;20.30;75.00;;;;;;5016788;28;20112;-80
2023/04/26 04:32:18;;;;;;;22.83;3.78;;;20.30;75.00;;;;;;5017181;28;20109;-80
2023/04/26 04:34:44;;;;;;;23.20;4.35;;;20.30;75.10;;;;;;5016508;28;20029;-80
2023/04/26 04:37:10;;;;;;;18.35;3.95;;;20.30;75.10;;;;;;5009553;28;20022;-80
2023/04/26 04:39:36;;;;;;;15.95;4.60;;;20.40;75.10;;;;;;5011104;28;20057;-81
2023/04/26 04:42:01;;;;;;;18.67;3.42;;;20.40;75.30;;;;;;5008966;28;20058;-80
2023/04/26 04:44:27;;;;;;;38.63;4.75;;;20.40;75.30;;;;;;5013024;28;20025;-81
2023/04/26 04:46:52;;;;;;;11.55;3.47;;;20.40;75.20;;;;;;5011929;28;20402;-80
2023/04/26 04:49:18;;;;;;;26.67;3.67;;;20.40;75.20;;;;;;5020059;28;20524;-79
2023/04/26 04:51:44;;;;;;;11.15;2.95;;;20.50;75.20;;;;;;5014281;28;20061;-81
2023/04/26 04:54:14;;;;;;;16.30;4.10;;;20.50;75.20;;;;;;5018448;28;20395;-79
2023/04/26 04:56:40;;;;;;;15.00;3.42;;;20.50;75.10;;;;;;5020505;28;20501;-80
2023/04/26 04:59:07;;;;;;;14.95;2.80;;;20.50;75.10;;;;;;5022932;28;20510;-81
2023/04/26 05:01:33;;;;;;;16.98;3.35;;;20.60;75.10;;;;;;5018106;28;20557;-79
2023/04/26 05:03:59;;;;;;;12.88;3.60;;;20.60;75.00;;;;;;5019545;28;20026;-80
2023/04/26 05:06:26;;;;;;;27.20;4.30;;;20.60;74.90;;;;;;5014324;28;21399;-82
2023/04/26 05:08:52;;;;;;;14.02;3.65;;;20.70;75.60;;;;;;5021166;28;20026;-83
2023/04/26 05:11:18;;;;;;;15.52;3.25;;;20.70;74.10;;;;;;5014159;28;20074;-83
2023/04/26 05:13:45;;;;;;;15.98;3.22;;;20.70;74.60;;;;;;5020480;28;20608;-83
2023/04/26 05:16:11;;;;;;;6.75;2.80;;;20.80;74.60;;;;;;5021248;28;20017;-81
2023/04/26 05:18:36;;;;;;;19.35;3.40;;;20.80;74.60;;;;;;5022697;28;20100;-82
2023/04/26 05:21:02;;;;;;;11.85;2.85;;;20.90;74.30;;;;;;5022900;28;20837;-83
2023/04/26 05:23:28;;;;;;;18.00;3.17;;;20.90;74.40;;;;;;5039378;28;20546;-84
2023/04/26 05:25:53;;;;;;;15.80;3.05;;;21.00;74.00;;;;;;5016267;28;20030;-82
2023/04/26 05:28:19;;;;;;;13.82;3.13;;;21.00;74.00;;;;;;5019222;28;20410;-79
2023/04/26 05:30:45;;;;;;;9.65;3.38;;;21.00;73.80;;;;;;5015501;28;20022;-83
2023/04/26 05:33:11;;;;;;;10.73;3.10;;;21.00;73.70;;;;;;5011688;28;20032;-80
2023/04/26 05:35:36;;;;;;;15.00;3.47;;;21.10;73.70;;;;;;5012241;28;20493;-80
2023/04/26 05:38:02;;;;;;;9.13;2.40;;;21.10;73.50;;;;;;5009718;28;20033;-81
2023/04/26 05:40:28;;;;;;;12.02;2.92;;;21.10;73.40;;;;;;5013091;28;20097;-82
2023/04/26 05:42:54;;;;;;;14.73;2.90;;;21.20;73.40;;;;;;5016048;28;20115;-81
2023/04/26 05:45:19;;;;;;;10.07;2.75;;;21.10;73.40;;;;;;5013107;28;20023;-83
2023/04/26 05:47:46;;;;;;;10.65;2.58;;;21.20;73.30;;;;;;5021980;28;20040;-79
2023/04/26 05:50:12;;;;;;;16.63;2.67;;;21.20;73.10;;;;;;5021346;28;20531;-82
2023/04/26 05:52:37;;;;;;;10.35;2.97;;;21.30;73.00;;;;;;5009234;28;20029;-81
2023/04/26 05:55:04;;;;;;;14.00;2.85;;;21.30;73.20;;;;;;5020504;28;20025;-81
2023/04/26 05:57:30;;;;;;;8.05;3.08;;;21.40;72.70;;;;;;5021726;28;20021;-81
2023/04/26 05:59:55;;;;;;;11.55;2.92;;;21.40;72.30;;;;;;5026240;28;20049;-81
2023/04/26 06:02:21;;;;;;;8.80;3.03;;;21.50;72.30;;;;;;5020684;28;20053;-81
2023/04/26 06:04:47;;;;;;;11.20;3.10;;;21.50;73.00;;;;;;5021775;28;20021;-81
2023/04/26 06:07:12;;;;;;;11.93;3.00;;;21.50;72.10;;;;;;5018634;28;20410;-81
2023/04/26 06:09:38;;;;;;;15.10;4.00;;;21.60;72.00;;;;;;5024500;28;20033;-79
2023/04/26 06:12:04;;;;;;;14.45;3.10;;;21.70;71.50;;;;;;5017487;28;20102;-78
2023/04/26 06:14:29;;;;;;;8.25;2.70;;;21.60;71.50;;;;;;5021831;28;20339;-79
2023/04/26 06:16:56;;;;;;;10.70;2.33;;;21.70;71.60;;;;;;5015705;28;20071;-81
2023/04/26 06:19:21;;;;;;;31.52;3.58;;;21.60;71.70;;;;;;5014635;28;20014;-80
2023/04/26 06:21:47;;;;;;;20.33;3.15;;;21.70;71.50;;;;;;5019749;28;20502;-79
2023/04/26 06:24:13;;;;;;;9.35;2.90;;;21.70;71.60;;;;;;5020546;28;20026;-78
2023/04/26 06:26:39;;;;;;;13.80;2.88;;;21.70;71.50;;;;;;5013566;28;20570;-79
2023/04/26 06:29:05;;;;;;;9.45;3.20;;;21.80;71.50;;;;;;5020701;28;20014;-78
2023/04/26 06:31:31;;;;;;;13.52;2.78;;;21.80;71.30;;;;;;5011214;28;20026;-79
2023/04/26 06:33:56;;;;;;;13.82;2.95;;;21.90;71.30;;;;;;5011078;28;20022;-79
2023/04/26 06:36:22;;;;;;;11.13;3.00;;;21.90;71.20;;;;;;5014466;28;20030;-79
2023/04/26 06:38:47;;;;;;;9.63;2.50;;;21.90;71.10;;;;;;5014026;28;20032;-80
2023/04/26 06:41:13;;;;;;;6.53;2.38;;;21.90;71.00;;;;;;5017482;28;20028;-80
2023/04/26 06:43:39;;;;;;;6.68;2.22;;;21.90;71.10;;;;;;5016695;28;20093;-79
2023/04/26 06:46:04;;;;;;;18.00;3.00;;;21.90;71.10;;;;;;5015319;28;20103;-79
2023/04/26 06:48:30;;;;;;;25.33;3.45;;;21.90;71.20;;;;;;5015359;28;20230;-79
2023/04/26 06:50:55;;;;;;;10.13;2.80;;;22.00;72.40;;;;;;5012997;28;20617;-79
2023/04/26 06:53:21;;;;;;;7.97;2.60;;;22.00;71.40;;;;;;5016041;28;20450;-78
2023/04/26 06:55:47;;;;;;;13.63;3.08;;;22.10;71.10;;;;;;5019906;28;20028;-78
2023/04/26 06:58:12;;;;;;;20.33;2.22;;;22.10;71.40;;;;;;5017709;28;20024;-79
2023/04/26 07:00:38;;;;;;;6.65;2.00;;;22.20;71.00;;;;;;5032465;28;20014;-79
2023/04/26 07:03:03;;;;;;;7.07;2.20;;;22.20;71.00;;;;;;5020234;28;20428;-80
2023/04/26 07:05:29;;;;;;;12.82;3.38;;;22.30;70.90;;;;;;5021874;28;20034;-81
2023/04/26 07:07:54;;;;;;;11.35;2.92;;;22.30;70.70;;;;;;5008882;28;20030;-82
2023/04/26 07:10:20;;;;;;;21.05;3.08;;;22.30;71.00;;;;;;5011133;28;20105;-81
2023/04/26 07:12:46;;;;;;;6.38;2.92;;;22.30;71.00;;;;;;5018102;28;20033;-81
2023/04/26 07:15:12;;;;;;;13.68;2.58;;;22.30;70.80;;;;;;5016984;28;20026;-82
2023/04/26 07:17:37;;;;;;;5.18;2.03;;;22.30;71.50;;;;;;5021844;28;20021;-81
2023/04/26 07:20:04;;;;;;;8.15;2.38;;;22.30;70.60;;;;;;5014821;28;20025;-78
2023/04/26 07:22:30;;;;;;;11.25;2.53;;;22.30;70.60;;;;;;5012370;28;20025;-78
2023/04/26 07:24:55;;;;;;;13.23;2.88;;;22.30;70.50;;;;;;5010955;28;20037;-78
2023/04/26 07:27:22;;;;;;;10.15;2.65;;;22.30;70.30;;;;;;5003863;28;20038;-78
2023/04/26 07:29:47;;;;;;;9.88;2.63;;;22.30;70.30;;;;;;5013595;28;20052;-78
2023/04/26 07:32:13;;;;;;;8.82;2.40;;;22.30;70.20;;;;;;5013263;28;20403;-78
2023/04/26 07:34:40;;;;;;;12.63;2.60;;;22.30;70.20;;;;;;5012158;28;20014;-81
2023/04/26 07:37:05;;;;;;;13.68;2.17;;;22.30;70.90;;;;;;5010874;28;20034;-81
2023/04/26 07:39:31;;;;;;;24.63;2.65;;;22.40;70.50;;;;;;5012112;28;20029;-81
2023/04/26 07:41:57;;;;;;;12.73;3.00;;;22.40;70.30;;;;;;5011195;28;20030;-79
2023/04/26 07:44:22;;;;;;;8.15;2.25;;;22.40;70.40;;;;;;5018082;28;20483;-80
2023/04/26 07:46:48;;;;;;;10.68;2.63;;;22.30;70.30;;;;;;5013618;28;20116;-79
2023/04/26 07:49:13;;;;;;;10.30;2.22;;;22.30;70.20;;;;;;5015340;28;20057;-82
2023/04/26 07:51:40;;;;;;;13.77;2.50;;;22.30;70.20;;;;;;5017167;28;20026;-80
2023/04/26 07:54:05;;;;;;;8.82;2.15;;;22.30;70.20;;;;;;5016590;28;20121;-80
2023/04/26 07:56:31;;;;;;;10.20;2.30;;;22.30;70.20;;;;;;5017925;28;20068;-80
2023/04/26 07:58:56;;;;;;;7.45;1.77;;;22.30;70.20;;;;;;5017888;28;20014;-80
2023/04/26 08:01:22;;;;;;;11.20;2.10;;;22.30;70.40;;;;;;5013966;28;20404;-80
2023/04/26 08:03:47;;;;;;;8.32;2.30;;;22.30;70.40;;;;;;5016362;28;20122;-80
2023/04/26 08:06:13;;;;;;;7.40;1.98;;;22.30;70.50;;;;;;5014172;28;20034;-80
2023/04/26 08:08:43;;;;;;;7.10;2.00;;;22.30;70.60;;;;;;5015420;28;20500;-80
2023/04/26 08:11:09;;;;;;;10.45;2.60;;;22.30;70.60;;;;;;5013344;28;20026;-80
2023/04/26 08:13:35;;;;;;;8.50;1.75;;;22.30;70.50;;;;;;5004766;28;20036;-80
2023/04/26 08:16:00;;;;;;;5.95;2.22;;;22.20;70.50;;;;;;5011094;28;20105;-80
2023/04/26 08:18:26;;;;;;;5.53;2.30;;;22.30;70.50;;;;;;5006824;28;20057;-79
2023/04/26 08:20:54;;;;;;;4.35;1.88;;;22.20;70.40;;;;;;5014322;28;20045;-79
2023/04/26 08:23:20;;;;;;;10.60;2.45;;;22.20;70.50;;;;;;5021856;28;20037;-79
2023/04/26 08:25:48;;;;;;;4.70;2.05;;;22.20;70.60;;;;;;5019184;28;20117;-81
2023/04/26 08:28:14;;;;;;;7.20;2.10;;;22.20;70.60;;;;;;5014903;28;20116;-80
2023/04/26 08:30:40;;;;;;;5.03;1.92;;;22.20;70.50;;;;;;5016146;28;20520;-80
2023/04/26 08:33:06;;;;;;;3.53;1.58;;;22.20;70.50;;;;;;5013152;28;20096;-80
2023/04/26 08:35:31;;;;;;;5.20;2.30;;;22.20;70.60;;;;;;5018903;28;20040;-81
2023/04/26 08:37:57;;;;;;;8.77;2.10;;;22.20;70.50;;;;;;5016945;28;20104;-81
2023/04/26 08:40:23;;;;;;;5.80;2.35;;;22.20;70.50;;;;;;5019312;28;20376;-80
2023/04/26 08:42:51;;;;;;;6.00;2.67;;;22.20;70.50;;;;;;5015813;28;20037;-80
2023/04/26 08:45:17;;;;;;;7.40;2.00;;;22.20;70.60;;;;;;5019470;28;20022;-79
2023/04/26 08:48:05;;;;;;;7.10;2.05;;;22.20;70.60;;;;;;5020819;28;20022;-81
2023/04/26 08:50:33;;;;;;;6.60;2.13;;;22.20;70.50;;;;;;5020680;28;20024;-80
2023/04/26 08:52:58;;;;;;;6.30;2.10;;;22.20;70.50;;;;;;5019867;28;20060;-80
2023/04/26 08:55:25;;;;;;;5.63;1.90;;;22.20;70.50;;;;;;5018491;28;20053;-80
2023/04/26 08:57:51;;;;;;;6.72;2.20;;;22.20;70.40;;;;;;5023982;28;20596;-80
2023/04/26 09:00:18;;;;;;;4.63;1.70;;;22.20;70.30;;;;;;5015678;28;20022;-80
2023/04/26 09:02:49;;;;;;;6.38;2.38;;;22.20;70.00;;;;;;5013122;28;20027;-80
2023/04/26 09:05:16;;;;;;;7.68;2.63;;;22.20;68.30;;;;;;5014324;28;20022;-80
2023/04/26 09:07:45;;;;;;;12.45;2.70;;;22.20;67.10;;;;;;5014939;28;20060;-81
2023/04/26 09:10:13;;;;;;;9.57;2.60;;;22.20;66.10;;;;;;5007761;28;20054;-82
2023/04/26 09:12:39;;;;;;;9.02;2.70;;;22.20;65.00;;;;;;5003622;28;20046;-80
2023/04/26 09:15:06;;;;;;;7.85;2.65;;;22.20;64.20;;;;;;5010617;28;20121;-80
2023/04/26 09:17:37;;;;;;;7.18;2.53;;;22.10;64.00;;;;;;5012044;28;20025;-80
2023/04/26 09:20:25;;;;;;;7.50;2.45;;;22.10;63.30;;;;;;5010635;28;20038;-79
2023/04/26 09:22:52;;;;;;;8.88;2.92;;;22.10;62.80;;;;;;5015892;28;20026;-80
2023/04/26 09:25:29;;;;;;;11.50;2.53;;;22.10;62.60;;;;;;5013405;28;20109;-81
2023/04/26 09:27:54;;;;;;;11.23;1.98;;;22.00;58.20;;;;;;5016887;28;20092;-80
2023/04/26 09:30:21;;;;;;;8.38;2.10;;;21.80;59.60;;;;;;5022856;28;20508;-79
2023/04/26 09:32:59;;;;;;;5.05;1.77;;;21.70;60.00;;;;;;5015344;28;20160;-79
2023/04/26 09:35:39;;;;;;;4.05;1.95;;;21.70;61.10;;;;;;5021530;28;20018;-79
2023/04/26 09:38:11;;;;;;;5.85;2.22;;;21.70;61.70;;;;;;5014362;28;20491;-81
2023/04/26 09:40:39;;;;;;;4.22;1.67;;;21.80;61.90;;;;;;5011984;28;20085;-79
2023/04/26 09:43:07;;;;;;;8.20;1.83;;;21.80;62.40;;;;;;5016299;28;20135;-79
2023/04/26 09:45:49;;;;;;;7.53;1.98;;;21.70;62.70;;;;;;5019086;28;20044;-80
2023/04/26 09:48:24;;;;;;;3.10;1.48;;;21.80;63.00;;;;;;5012379;28;20045;-79
2023/04/26 09:50:53;;;;;;;6.35;2.00;;;21.80;63.20;;;;;;5019331;28;20036;-79
2023/04/26 09:53:38;;;;;;;8.48;1.67;;;21.80;63.20;;;;;;5014759;28;20037;-81
2023/04/26 09:56:19;;;;;;;6.25;2.05;;;21.70;63.60;;;;;;5021075;28;20383;-81
2023/04/26 09:58:50;;;;;;;10.52;2.10;;;21.70;63.90;;;;;;5015195;28;20022;-81
2023/04/26 10:01:18;;;;;;;5.07;1.67;;;21.70;64.20;;;;;;5015623;28;20022;-80
2023/04/26 10:03:45;;;;;;;10.43;1.73;;;21.70;64.30;;;;;;5013261;28;20045;-81
2023/04/26 10:06:17;;;;;;;2.40;1.70;;;21.70;64.50;;;;;;5011312;28;20399;-83
2023/04/26 10:08:43;;;;;;;5.18;1.90;;;21.60;64.90;;;;;;5008798;28;20026;-83
2023/04/26 10:11:12;;;;;;;9.60;1.80;;;21.70;64.80;;;;;;5013118;28;20517;-82
2023/04/26 10:13:40;;;;;;;7.78;1.42;;;21.70;64.80;;;;;;5009671;28;20112;-82
2023/04/26 10:16:05;;;;;;;6.07;2.38;;;21.60;65.10;;;;;;5016175;28;20025;-81
2023/04/26 10:18:32;;;;;;;5.28;1.98;;;21.60;65.30;;;;;;5011168;28;20029;-81
2023/04/26 10:21:18;;;;;;;15.13;2.08;;;21.60;65.60;;;;;;5017887;28;20502;-82
2023/04/26 10:23:44;;;;;;;5.05;1.42;;;21.60;65.70;;;;;;5016921;28;20124;-80
2023/04/26 10:26:48;;;;;;;1.70;1.25;;;21.50;65.90;;;;;;5021437;28;20085;-81
2023/04/26 10:29:14;;;;;;;9.98;1.42;;;21.50;66.20;;;;;;5009242;28;20083;-81
2023/04/26 10:32:02;;;;;;;4.88;2.10;;;21.50;66.40;;;;;;5017110;28;20443;-80
2023/04/26 10:34:30;;;;;;;7.55;1.60;;;21.50;66.60;;;;;;5017292;28;20080;-80
2023/04/26 10:37:14;;;;;;;4.03;1.67;;;21.50;66.60;;;;;;5018225;28;20407;-80
2023/04/26 10:39:42;;;;;;;8.02;1.90;;;21.50;65.90;;;;;;5018084;28;20037;-80
2023/04/26 10:42:22;;;;;;;4.13;2.15;;;21.40;65.10;;;;;;5017174;28;20030;-81
2023/04/26 10:45:27;;;;;;;7.30;2.05;;;21.40;64.80;;;;;;5017743;28;20109;-81
2023/04/26 10:48:18;;;;;;;6.45;2.00;;;21.40;63.70;;;;;;5016234;28;20064;-80
2023/04/26 10:51:17;;;;;;;4.38;1.90;;;21.40;62.30;;;;;;5015049;28;20018;-80
2023/04/26 10:53:45;;;;;;;5.55;2.13;;;21.40;61.10;;;;;;5012247;28;20037;-81
2023/04/26 10:56:37;;;;;;;6.22;2.83;;;21.30;60.70;;;;;;5014680;28;20022;-81
2023/04/26 10:59:13;;;;;;;3.88;2.10;;;21.30;61.90;;;;;;5012551;28;20049;-81
2023/04/26 11:01:39;;;;;;;5.57;1.88;;;21.30;62.10;;;;;;5010013;28;20022;-80
2023/04/26 11:04:09;;;;;;;7.85;1.92;;;21.20;62.30;;;;;;5007971;28;20033;-80
2023/04/26 11:06:56;;;;;;;5.00;1.80;;;21.20;62.90;;;;;;5008387;28;20105;-81
2023/04/26 11:09:38;;;;;;;6.95;2.17;;;21.20;63.10;;;;;;5010306;28;20022;-80
2023/04/26 11:12:15;;;;;;;3.67;1.70;;;21.20;63.50;;;;;;5014949;28;20018;-80
2023/04/26 11:14:41;;;;;;;7.20;1.95;;;21.20;62.90;;;;;;5019687;28;20105;-80
2023/04/26 11:17:11;;;;;;;9.27;2.08;;;21.20;63.10;;;;;;5018074;28;20085;-80
2023/04/26 11:19:37;;;;;;;5.57;2.40;;;21.20;63.30;;;;;;5016251;28;20053;-80
2023/04/26 11:22:06;;;;;;;10.52;1.95;;;21.20;63.00;;;;;;5017467;28;20022;-80
2023/04/26 11:24:35;;;;;;;6.75;2.13;;;21.20;63.00;;;;;;5011846;28;20037;-79
2023/04/26 11:27:06;;;;;;;4.90;2.37;;;21.20;63.20;;;;;;5020823;28;20025;-81
2023/04/26 11:29:32;;;;;;;2.85;1.85;;;21.20;62.90;;;;;;5017163;28;20269;-80
2023/04/26 11:31:58;;;;;;;6.35;1.92;;;21.20;63.40;;;;;;5009458;28;20114;-80
2023/04/26 11:34:34;;;;;;;5.53;1.73;;;21.20;63.60;;;;;;5017211;28;20037;-80
2023/04/26 11:37:06;;;;;;;8.77;1.92;;;21.20;63.80;;;;;;5020669;28;20014;-80
2023/04/26 11:39:36;;;;;;;2.35;1.65;;;21.20;64.00;;;;;;5014753;28;20520;-80
2023/04/26 11:42:11;;;;;;;6.38;2.08;;;21.20;64.00;;;;;;5014395;28;20589;-80
2023/04/26 11:44:38;;;;;;;2.33;1.45;;;21.20;64.10;;;;;;5016689;28;20033;-79
2023/04/26 11:47:07;;;;;;;4.97;2.72;;;21.20;64.10;;;;;;5009690;28;20018;-80
2023/04/26 11:49:35;;;;;;;6.28;2.28;;;21.20;64.10;;;;;;5009274;28;20026;-79
2023/04/26 11:52:02;;;;;;;7.05;2.25;;;21.20;64.50;;;;;;5004105;28;20102;-79
2023/04/26 11:54:32;;;;;;;9.20;2.05;;;21.20;64.70;;;;;;5009445;28;20029;-79
2023/04/26 11:56:57;;;;;;;;;;;21.30;64.70;;;;;;5031917;28;20046;-79
2023/04/26 11:59:29;;;;;;;7.20;2.13;;;21.30;64.90;;;;;;5015203;28;19905;-78
2023/04/26 12:02:00;;;;;;;13.45;2.40;;;21.30;64.80;;;;;;5007530;28;20029;-80
2023/04/26 12:04:28;;;;;;;7.47;1.98;;;21.30;65.10;;;;;;5020437;28;20080;-80
2023/04/26 12:06:53;;;;;;;15.15;5.30;;;21.30;65.00;;;;;;5017533;28;20026;-80
2023/04/26 12:09:30;;;;;;;8.57;1.70;;;21.40;64.80;;;;;;5021867;28;20037;-81
2023/04/26 12:12:07;;;;;;;7.22;1.90;;;21.40;64.60;;;;;;5022356;28;20057;-80
2023/04/26 12:14:37;;;;;;;9.15;2.10;;;21.40;64.30;;;;;;5020827;28;20129;-80
2023/04/26 12:17:03;;;;;;;;;;;21.50;64.30;;;;;;5023060;28;20530;-80
2023/04/26 12:19:36;;;;;;;4.28;1.75;;;21.50;64.00;;;;;;5018910;28;19905;-80
2023/04/26 12:22:02;;;;;;;4.68;1.80;;;21.50;64.10;;;;;;5023211;28;20106;-80
2023/04/26 12:24:32;;;;;;;4.15;1.67;;;21.50;64.20;;;;;;5018812;28;20563;-80
2023/04/26 12:26:58;;;;;;;8.35;1.95;;;21.50;64.10;;;;;;5023747;28;20021;-79
2023/04/26 12:29:23;;;;;;;8.18;1.60;;;21.50;65.30;;;;;;5016311;28;20053;-80
2023/04/26 12:31:49;;;;;;;7.82;2.08;;;21.60;65.50;;;;;;5019249;28;20089;-80
2023/04/26 12:34:15;;;;;;;22.98;2.30;;;21.70;65.10;;;;;;5021103;28;20035;-80
2023/04/26 12:36:43;;;;;;;11.00;2.30;;;21.70;65.00;;;;;;5020833;28;20044;-78
2023/04/26 12:39:14;;;;;;;12.90;2.10;;;21.70;65.10;;;;;;5024744;28;20032;-79
2023/04/26 12:41:40;;;;;;;5.80;1.48;;;21.80;65.00;;;;;;5014126;28;20046;-78
2023/04/26 12:44:07;;;;;;;5.68;1.77;;;21.90;64.80;;;;;;5016439;28;20037;-78